createdAt,value
2022-08-07T00:00:27.548Z,74.04
2022-08-07T00:03:08.932Z,75.45
2022-08-07T00:05:37.417Z,75.67
2022-08-07T00:08:07.798Z,75.29
2022-08-07T00:10:47.881Z,75.69
2022-08-07T00:13:26.671Z,75.02
2022-08-07T00:15:54.985Z,75.13
2022-08-07T00:18:26.250Z,74.94
2022-08-07T00:21:01.823Z,74.80
2022-08-07T00:23:33.686Z,75.35
2022-08-07T00:26:18.950Z,75.73
2022-08-07T00:28:55.392Z,75.52
2022-08-07T00:31:25.543Z,76.24
2022-08-07T00:34:05.351Z,75.68
2022-08-07T00:36:38.558Z,75.10
2022-08-07T00:39:16.741Z,75.21
2022-08-07T00:42:02.580Z,75.67
2022-08-07T00:44:41.251Z,76.26
2022-08-07T00:47:15.780Z,75.76
2022-08-07T00:50:21.131Z,75.94
2022-08-07T00:52:47.495Z,75.27
2022-08-07T00:55:17.233Z,75.75
2022-08-07T00:57:55.702Z,76.36
2022-08-07T01:00:24.766Z,75.46
2022-08-07T01:02:52.433Z,74.60
2022-08-07T01:05:24.568Z,75.50
2022-08-07T01:07:51.887Z,75.48
2022-08-07T01:10:20.368Z,76.31
2022-08-07T01:12:53.746Z,76.46
2022-08-07T01:15:35.895Z,75.51
2022-08-07T01:18:17.562Z,74.77
2022-08-07T01:21:22.574Z,74.76
2022-08-07T01:23:54.520Z,74.86
2022-08-07T01:26:23.115Z,75.10
2022-08-07T01:28:54.952Z,75.75
2022-08-07T01:31:40.918Z,75.97
2022-08-07T01:34:13.692Z,75.35
2022-08-07T01:36:44.119Z,75.18
2022-08-07T01:39:16.965Z,76.33
2022-08-07T01:42:36.878Z,76.50
2022-08-07T01:44:44.231Z,77.17
2022-08-07T01:48:19.950Z,76.96
2022-08-07T01:50:05.949Z,77.57
2022-08-07T01:52:34.925Z,77.51
2022-08-07T01:55:03.883Z,78.85
2022-08-07T01:58:05.574Z,77.92
2022-08-07T02:00:30.601Z,78.56
2022-08-07T02:03:19.274Z,77.65
2022-08-07T02:06:01.751Z,77.97
2022-08-07T02:08:40.652Z,77.68
2022-08-07T02:11:30.850Z,77.30
2022-08-07T02:14:02.545Z,77.89
2022-08-07T02:16:33.638Z,78.17
2022-08-07T02:20:07.606Z,78.38
2022-08-07T02:21:57.805Z,78.11
2022-08-07T02:24:29.934Z,78.08
2022-08-07T02:27:01.515Z,78.42
2022-08-07T02:29:31.585Z,77.92
2022-08-07T02:32:01.551Z,78.27
2022-08-07T02:34:30.195Z,78.04
2022-08-07T02:37:01.793Z,78.67
2022-08-07T02:40:11.946Z,79.25
2022-08-07T02:42:33.353Z,78.97
2022-08-07T02:45:20.654Z,79.13
2022-08-07T02:47:52.558Z,79.34
2022-08-07T02:50:20.753Z,79.07
2022-08-07T02:53:07.689Z,79.15
2022-08-07T02:56:03.644Z,80.14
2022-08-07T02:58:36.966Z,80.90
2022-08-07T03:01:15.966Z,80.63
2022-08-07T03:03:49.913Z,81.04
2022-08-07T03:06:26.141Z,80.67
2022-08-07T03:09:07.357Z,80.30
2022-08-07T03:11:52.304Z,80.24
2022-08-07T03:14:27.749Z,80.58
2022-08-07T03:16:56.870Z,80.82
2022-08-07T03:19:24.914Z,80.04
2022-08-07T03:21:58.711Z,80.37
2022-08-07T03:24:28.042Z,80.00
2022-08-07T03:27:04.482Z,79.70
2022-08-07T03:29:51.445Z,79.41
2022-08-07T03:32:38.952Z,79.36
2022-08-07T03:35:26.119Z,79.15
2022-08-07T03:38:01.598Z,79.26
2022-08-07T03:40:36.636Z,79.55
2022-08-07T03:43:13.696Z,79.17
2022-08-07T03:45:47.784Z,78.47
2022-08-07T03:48:19.956Z,78.18
2022-08-07T03:50:55.705Z,78.21
2022-08-07T03:53:49.872Z,78.50
2022-08-07T03:56:32.637Z,78.05
2022-08-07T03:59:09.436Z,77.85
2022-08-07T04:01:45.590Z,77.93
2022-08-07T04:04:17.275Z,77.78
2022-08-07T04:06:46.814Z,77.35
2022-08-07T04:09:23.041Z,77.38
2022-08-07T04:12:24.113Z,76.73
2022-08-07T04:14:46.096Z,76.84
2022-08-07T04:17:21.154Z,76.39
2022-08-07T04:19:55.276Z,76.06
2022-08-07T04:22:29.480Z,76.21
2022-08-07T04:25:01.617Z,75.56
2022-08-07T04:27:35.677Z,75.30
2022-08-07T04:30:35.625Z,74.87
2022-08-07T04:33:14.014Z,74.52
2022-08-07T04:35:51.266Z,73.82
2022-08-07T04:38:26.312Z,73.56
2022-08-07T04:40:56.857Z,73.63
2022-08-07T04:44:12.791Z,73.55
2022-08-07T04:47:04.455Z,72.97
2022-08-07T04:50:04.146Z,72.79
2022-08-07T04:53:09.252Z,72.43
2022-08-07T04:58:16.821Z,71.97
2022-08-07T05:00:09.949Z,72.01
2022-08-07T05:02:24.003Z,71.83
2022-08-07T05:05:51.960Z,70.96
2022-08-07T05:08:02.621Z,70.36
2022-08-07T05:11:10.673Z,69.90
2022-08-07T05:14:55.123Z,69.57
2022-08-07T05:16:52.903Z,69.02
2022-08-07T05:19:44.044Z,69.46
2022-08-07T05:22:26.837Z,69.18
2022-08-07T05:25:02.118Z,68.05
2022-08-07T05:28:16.273Z,67.72
2022-08-07T05:30:32.780Z,67.18
2022-08-07T05:33:04.776Z,66.54
2022-08-07T05:35:42.168Z,65.96
2022-08-07T05:38:12.396Z,65.74
2022-08-07T05:41:12.338Z,65.76
2022-08-07T05:44:11.809Z,65.36
2022-08-07T05:46:43.105Z,64.55
2022-08-07T05:49:13.128Z,65.02
2022-08-07T05:51:47.768Z,64.58
2022-08-07T05:54:30.675Z,64.57
2022-08-07T05:57:04.074Z,64.00
2022-08-07T05:59:38.984Z,63.58
2022-08-07T06:02:32.851Z,63.54
2022-08-07T06:05:10.888Z,63.59
2022-08-07T06:08:14.537Z,63.49
2022-08-07T06:10:32.366Z,63.58
2022-08-07T06:13:02.211Z,63.72
2022-08-07T06:15:42.545Z,63.61
2022-08-07T06:18:14.137Z,63.64
2022-08-07T06:20:50.730Z,63.09
2022-08-07T06:24:37.792Z,63.16
2022-08-07T06:26:30.102Z,62.68
2022-08-07T06:28:59.862Z,62.55
2022-08-07T06:31:46.632Z,62.72
2022-08-07T06:34:19.746Z,62.59
2022-08-07T06:36:51.855Z,62.53
2022-08-07T06:40:18.023Z,62.73
2022-08-07T06:42:32.816Z,62.13
2022-08-07T06:45:21.194Z,62.15
2022-08-07T06:47:58.631Z,62.19
2022-08-07T06:50:50.850Z,61.95
2022-08-07T06:55:27.819Z,61.89
2022-08-07T06:56:17.143Z,61.63
2022-08-07T07:00:11.913Z,61.62
2022-08-07T07:01:43.756Z,61.65
2022-08-07T07:04:32.902Z,61.29
2022-08-07T07:07:18.862Z,61.57
2022-08-07T07:09:50.848Z,61.57
2022-08-07T07:12:53.596Z,61.12
2022-08-07T07:15:39.124Z,60.96
2022-08-07T07:18:19.243Z,60.81
2022-08-07T07:21:19.653Z,60.70
2022-08-07T07:24:09.390Z,60.72
2022-08-07T07:26:38.142Z,60.69
2022-08-07T07:29:40.716Z,60.43
2022-08-07T07:32:05.647Z,60.22
2022-08-07T07:34:38.380Z,59.97
2022-08-07T07:37:22.035Z,59.60
2022-08-07T07:40:10.547Z,59.64
2022-08-07T07:42:51.311Z,58.81
2022-08-07T07:46:36.751Z,58.83
2022-08-07T07:48:35.093Z,58.59
2022-08-07T07:51:07.675Z,58.04
2022-08-07T07:53:52.121Z,58.00
2022-08-07T07:56:29.968Z,58.02
2022-08-07T08:00:04.403Z,57.26
2022-08-07T08:03:04.841Z,57.45
2022-08-07T08:05:42.681Z,57.11
2022-08-07T08:08:32.386Z,56.83
2022-08-07T08:11:01.251Z,56.26
2022-08-07T08:13:36.663Z,56.46
2022-08-07T08:16:25.252Z,56.36
2022-08-07T08:18:56.103Z,55.50
2022-08-07T08:21:55.859Z,54.56
2022-08-07T08:25:18.433Z,53.68
2022-08-07T08:27:57.657Z,52.88
2022-08-07T08:30:34.581Z,52.99
2022-08-07T08:33:05.756Z,52.30
2022-08-07T08:35:50.641Z,50.63
2022-08-07T08:38:29.339Z,49.97
2022-08-07T08:41:13.114Z,49.76
2022-08-07T08:44:07.393Z,49.09
2022-08-07T08:47:11.388Z,49.57
2022-08-07T08:50:34.850Z,49.37
2022-08-07T08:53:34.200Z,50.04
2022-08-07T08:56:11.174Z,50.10
2022-08-07T08:58:54.650Z,50.08
2022-08-07T09:01:43.799Z,49.53
2022-08-07T09:04:53.189Z,47.72
2022-08-07T09:07:57.584Z,47.05
2022-08-07T09:11:24.848Z,46.64
2022-08-07T09:14:31.973Z,47.11
2022-08-07T09:17:17.393Z,47.15
2022-08-07T09:20:35.528Z,46.54
2022-08-07T09:24:49.081Z,46.89
2022-08-07T09:26:57.284Z,49.20
2022-08-07T09:30:03.265Z,49.61
2022-08-07T09:33:53.013Z,50.18
2022-08-07T09:36:42.757Z,49.25
2022-08-07T09:39:53.589Z,48.70
2022-08-07T09:43:00.101Z,47.28
2022-08-07T09:47:26.313Z,46.81
2022-08-07T09:50:00.802Z,47.31
2022-08-07T09:52:42.375Z,46.56
2022-08-07T09:56:03.987Z,47.40
2022-08-07T09:59:07.700Z,48.13
2022-08-07T10:02:34.428Z,48.91
2022-08-07T10:06:01.305Z,50.00
2022-08-07T10:08:58.114Z,50.31
2022-08-07T10:12:01.048Z,50.48
2022-08-07T10:14:43.859Z,51.08
2022-08-07T10:18:11.145Z,51.75
2022-08-07T10:20:42.067Z,52.44
2022-08-07T10:24:17.155Z,52.70
2022-08-07T10:27:06.724Z,53.04
2022-08-07T10:30:12.367Z,53.34
2022-08-07T10:34:14.331Z,53.61
2022-08-07T10:36:45.461Z,54.02
2022-08-07T10:40:02.723Z,54.49
2022-08-07T10:43:00.815Z,54.58
2022-08-07T10:45:58.415Z,54.63
2022-08-07T10:49:00.165Z,54.91
2022-08-07T10:52:01.642Z,54.99
2022-08-07T10:54:53.145Z,55.00
2022-08-07T10:57:56.171Z,55.32
2022-08-07T11:00:39.281Z,54.92
2022-08-07T11:03:37.716Z,54.94
2022-08-07T11:06:54.325Z,54.84
2022-08-07T11:10:08.403Z,54.64
2022-08-07T11:12:32.051Z,54.54
2022-08-07T11:15:31.892Z,54.35
2022-08-07T11:18:24.971Z,54.48
2022-08-07T11:21:06.061Z,54.07
2022-08-07T11:24:14.781Z,53.74
2022-08-07T11:27:13.471Z,53.79
2022-08-07T11:30:20.201Z,53.38
2022-08-07T11:33:48.775Z,53.30
2022-08-07T11:36:36.443Z,53.36
2022-08-07T11:39:59.315Z,53.19
2022-08-07T11:42:30.328Z,53.34
2022-08-07T11:45:23.797Z,53.12
2022-08-07T11:49:17.503Z,52.85
2022-08-07T11:52:09.429Z,52.89
2022-08-07T11:55:18.604Z,53.22
2022-08-07T11:58:33.498Z,53.44
2022-08-07T12:01:26.953Z,52.76
2022-08-07T12:04:56.010Z,52.86
2022-08-07T12:07:39.313Z,52.84
2022-08-07T12:10:23.188Z,52.54
2022-08-07T12:13:11.387Z,52.44
2022-08-07T12:16:06.619Z,52.55
2022-08-07T12:19:07.172Z,52.42
2022-08-07T12:22:38.780Z,52.38
2022-08-07T12:26:22.201Z,52.44
2022-08-07T12:29:37.753Z,52.13
2022-08-07T12:32:27.374Z,52.01
2022-08-07T12:34:57.784Z,51.73
2022-08-07T12:38:09.013Z,51.95
2022-08-07T12:44:01.402Z,51.82
2022-08-07T12:46:39.542Z,52.15
2022-08-07T12:49:25.770Z,52.01
2022-08-07T12:52:20.537Z,51.52
2022-08-07T12:54:54.628Z,51.53
2022-08-07T12:57:39.039Z,51.64
2022-08-07T13:00:30.996Z,52.07
2022-08-07T13:04:00.559Z,52.48
2022-08-07T13:07:02.658Z,52.34
2022-08-07T13:10:28.312Z,52.42
2022-08-07T13:13:47.464Z,52.35
2022-08-07T13:16:10.191Z,52.28
2022-08-07T13:18:53.592Z,52.19
2022-08-07T13:21:57.706Z,52.40
2022-08-07T13:25:15.201Z,52.47
2022-08-07T13:28:10.769Z,52.24
2022-08-07T13:31:02.128Z,52.56
2022-08-07T13:34:30.565Z,52.74
2022-08-07T13:37:10.813Z,52.61
2022-08-07T13:40:35.611Z,52.36
2022-08-07T13:42:57.676Z,52.28
2022-08-07T13:46:11.831Z,51.93
2022-08-07T13:48:27.953Z,51.69
2022-08-07T13:51:27.977Z,51.53
2022-08-07T13:54:04.685Z,51.76
2022-08-07T13:56:40.816Z,51.35
2022-08-07T13:59:25.273Z,51.42
2022-08-07T14:02:03.677Z,51.62
2022-08-07T14:04:49.305Z,51.39
2022-08-07T14:07:24.498Z,51.25
2022-08-07T14:10:03.101Z,51.17
2022-08-07T14:13:02.352Z,50.93
2022-08-07T14:15:41.869Z,50.95
2022-08-07T14:18:29.351Z,50.89
2022-08-07T14:21:21.262Z,50.82
2022-08-07T14:24:14.296Z,50.72
2022-08-07T14:27:16.151Z,50.14
2022-08-07T14:30:09.510Z,50.32
2022-08-07T14:32:54.272Z,50.14
2022-08-07T14:35:43.354Z,49.90
2022-08-07T14:38:30.726Z,50.07
2022-08-07T14:41:12.486Z,50.12
2022-08-07T14:43:58.262Z,49.99
2022-08-07T14:46:56.652Z,50.07
2022-08-07T14:49:58.416Z,49.82
2022-08-07T14:52:27.987Z,50.17
2022-08-07T14:54:59.846Z,50.22
2022-08-07T15:00:30.609Z,50.14
2022-08-07T15:03:22.861Z,49.88
2022-08-07T15:06:13.775Z,49.84
2022-08-07T15:08:54.753Z,50.14
2022-08-07T15:11:54.152Z,50.16
2022-08-07T15:14:30.666Z,50.24
2022-08-07T15:22:55.873Z,49.82
2022-08-07T15:25:36.518Z,49.85
2022-08-07T15:28:34.520Z,49.15
2022-08-07T15:31:04.799Z,49.27
2022-08-07T15:33:38.499Z,49.12
2022-08-07T15:36:13.970Z,48.93
2022-08-07T15:39:12.078Z,48.59
2022-08-07T15:42:45.065Z,47.94
2022-08-07T15:44:56.932Z,47.84
2022-08-07T15:48:00.137Z,47.54
2022-08-07T15:53:55.789Z,47.12
2022-08-07T15:56:37.117Z,46.37
2022-08-07T15:59:19.661Z,46.69
2022-08-07T16:02:10.858Z,46.32
2022-08-07T16:04:47.213Z,46.45
2022-08-07T16:08:31.124Z,46.66
2022-08-07T16:10:18.527Z,46.77
2022-08-07T16:13:57.838Z,46.85
2022-08-07T16:16:49.278Z,47.28
2022-08-07T16:19:58.883Z,47.28
2022-08-07T16:22:55.033Z,47.62
2022-08-07T16:25:55.035Z,48.06
2022-08-07T16:30:09.271Z,47.81
2022-08-07T16:31:51.258Z,47.71
2022-08-07T16:34:56.476Z,47.68
2022-08-07T16:38:09.641Z,48.54
2022-08-07T16:41:24.371Z,48.83
2022-08-07T16:44:40.508Z,49.50
2022-08-07T16:47:56.490Z,49.82
2022-08-07T16:51:13.445Z,50.08
2022-08-07T16:54:01.881Z,50.97
2022-08-07T16:58:00.809Z,51.63
2022-08-07T17:00:29.843Z,52.22
2022-08-07T17:03:11.394Z,52.43
2022-08-07T17:06:29.245Z,53.05
2022-08-07T17:09:15.802Z,53.94
2022-08-07T17:12:34.088Z,54.59
2022-08-07T17:16:15.016Z,54.95
2022-08-07T17:20:00.972Z,56.81
2022-08-07T17:22:36.276Z,57.71
2022-08-07T17:25:47.756Z,58.66
2022-08-07T17:28:20.018Z,59.56
2022-08-07T17:31:16.374Z,60.35
2022-08-07T17:35:33.113Z,60.85
2022-08-07T17:38:08.174Z,61.43
2022-08-07T17:42:03.755Z,61.68
2022-08-07T17:45:03.986Z,62.21
2022-08-07T17:48:30.587Z,63.02
2022-08-07T17:51:59.574Z,63.58
2022-08-07T17:55:54.918Z,64.15
2022-08-07T17:58:30.091Z,64.38
2022-08-07T18:01:20.788Z,64.75
2022-08-07T18:04:16.711Z,65.06
2022-08-07T18:07:19.355Z,65.26
2022-08-07T18:10:07.451Z,65.89
2022-08-07T18:13:00.694Z,66.56
2022-08-07T18:15:53.359Z,66.57
2022-08-07T18:18:44.995Z,66.72
2022-08-07T18:22:03.434Z,66.53
2022-08-07T18:24:51.014Z,67.15
2022-08-07T18:28:01.828Z,67.29
2022-08-07T18:30:39.363Z,67.10
2022-08-07T18:34:33.829Z,67.47
2022-08-07T18:38:59.168Z,67.35
2022-08-07T18:41:20.725Z,67.58
2022-08-07T18:44:11.880Z,67.88
2022-08-07T18:47:01.333Z,67.59
2022-08-07T18:50:40.675Z,68.27
2022-08-07T18:53:55.526Z,68.55
2022-08-07T18:57:30.369Z,69.04
2022-08-07T19:00:33.363Z,69.23
2022-08-07T19:03:35.377Z,69.40
2022-08-07T19:07:00.188Z,69.40
2022-08-07T19:10:18.605Z,69.61
2022-08-07T19:13:59.787Z,69.49
2022-08-07T19:17:18.140Z,69.64
2022-08-07T19:20:29.512Z,70.19
2022-08-07T19:23:18.502Z,70.41
2022-08-07T19:26:22.769Z,70.28
2022-08-07T19:31:04.457Z,70.25
2022-08-07T19:32:10.955Z,70.78
2022-08-07T19:34:41.572Z,70.68
2022-08-07T19:37:22.354Z,70.64
2022-08-07T19:40:02.713Z,70.40
2022-08-07T19:42:43.253Z,70.63
2022-08-07T19:46:01.216Z,70.75
2022-08-07T19:48:18.672Z,70.59
2022-08-07T19:54:34.119Z,69.90
2022-08-07T19:56:59.724Z,69.72
2022-08-07T19:59:06.950Z,69.49
2022-08-07T20:01:56.122Z,69.89
2022-08-07T20:04:32.138Z,70.08
2022-08-07T20:07:11.318Z,69.94
2022-08-07T20:10:38.042Z,69.69
2022-08-07T20:12:44.011Z,69.80
2022-08-07T20:15:24.893Z,69.88
2022-08-07T20:18:06.545Z,69.64
2022-08-07T20:20:48.477Z,69.40
2022-08-07T20:23:39.893Z,69.23
2022-08-07T20:26:20.430Z,69.19
2022-08-07T20:29:01.766Z,69.40
2022-08-07T20:31:46.520Z,69.68
2022-08-07T20:34:39.965Z,69.98
2022-08-07T20:37:16.178Z,70.05
2022-08-07T20:40:02.364Z,70.31
2022-08-07T20:42:34.617Z,70.24
2022-08-07T20:45:32.680Z,70.84
2022-08-07T20:47:58.769Z,70.33
2022-08-07T20:50:31.161Z,70.69
2022-08-07T20:53:00.539Z,70.47
2022-08-07T20:55:32.242Z,70.58
2022-08-07T20:58:12.274Z,70.61
2022-08-07T21:00:57.949Z,70.43
2022-08-07T21:03:28.027Z,70.46
2022-08-07T21:06:21.594Z,71.08
2022-08-07T21:09:07.472Z,70.95
2022-08-07T21:11:50.171Z,70.91
2022-08-07T21:14:48.485Z,70.82
2022-08-07T21:18:02.308Z,70.15
2022-08-07T21:20:30.342Z,70.57
2022-08-07T21:23:15.387Z,70.64
2022-08-07T21:26:05.409Z,70.85
2022-08-07T21:28:59.772Z,70.96
2022-08-07T21:32:47.308Z,71.13
2022-08-07T21:35:59.957Z,71.27
2022-08-07T21:38:19.280Z,71.35
2022-08-07T21:41:10.118Z,71.43
2022-08-07T21:43:55.175Z,71.75
2022-08-07T21:46:42.230Z,72.20
2022-08-07T21:49:27.774Z,71.49
2022-08-07T21:52:32.943Z,71.77
2022-08-07T21:55:27.928Z,72.05
2022-08-07T21:58:12.068Z,72.21
2022-08-07T22:00:47.569Z,71.99
2022-08-07T22:03:31.011Z,72.30
2022-08-07T22:06:36.211Z,72.13
2022-08-07T22:09:25.409Z,72.83
2022-08-07T22:12:05.239Z,73.00
2022-08-07T22:14:59.541Z,72.90
2022-08-07T22:17:38.068Z,72.89
2022-08-07T22:20:40.217Z,73.20
2022-08-07T22:23:25.304Z,73.50
2022-08-07T22:26:12.747Z,73.57
2022-08-07T22:28:58.542Z,73.52
2022-08-07T22:32:00.258Z,73.65
2022-08-07T22:34:57.534Z,73.66
2022-08-07T22:38:03.211Z,74.08
2022-08-07T22:40:52.876Z,73.89
2022-08-07T22:43:44.079Z,73.67
2022-08-07T22:47:03.026Z,73.82
2022-08-07T22:50:20.677Z,74.26
2022-08-07T22:54:07.477Z,74.20
2022-08-07T22:56:47.649Z,73.99
2022-08-07T22:59:49.725Z,74.11
2022-08-07T23:03:10.101Z,74.21
2022-08-07T23:06:07.328Z,74.64
2022-08-07T23:10:04.473Z,74.53
2022-08-07T23:12:56.665Z,74.33
2022-08-07T23:16:06.618Z,74.54
2022-08-07T23:19:48.223Z,74.50
2022-08-07T23:22:32.721Z,74.55
2022-08-07T23:25:50.544Z,74.54
2022-08-07T23:28:57.284Z,74.51
2022-08-07T23:32:49.032Z,74.65
2022-08-07T23:35:12.812Z,74.42
2022-08-07T23:38:36.754Z,74.43
2022-08-07T23:42:04.838Z,74.58
2022-08-07T23:45:15.232Z,74.82
2022-08-07T23:48:27.531Z,75.06
2022-08-07T23:53:06.514Z,74.79
2022-08-07T23:54:46.297Z,74.90
2022-08-07T23:57:38.312Z,75.05
